Terminal Aerodrome Forecast
Issued by NWS Cleveland, OH

Home | Current Version | Previous Version | Text Only | Print | Product List | Glossary On
Versions: 1 2 3 4 5 6 7 8 9 10 11 12 13
000
FTUS41 KCLE 232320
TAFERI
TAF
KERI 232320Z 2400/2424 16020G30KT P6SM -SHRA BKN050
      TEMPO 2400/2402 16025G35KT
     FM240200 19020G30KT P6SM -SHRA OVC050
     FM240900 19015G25KT P6SM BKN050
     FM241600 18018G28KT P6SM OVC035=

USA.gov is the U.S. government's official web portal to all federal, state and local government web resources and services.